sensor_id;sensor_type;location;lat;lon;timestamp;temperature;humidity
2539;DHT22;1280;49.760;9.664;2024-01-10T00:00:50;-1.60;56.10
2539;DHT22;1280;49.760;9.664;2024-01-10T00:03:25;-1.60;56.10
2539;DHT22;1280;49.760;9.664;2024-01-10T00:05:57;-1.60;56.20
2539;DHT22;1280;49.760;9.664;2024-01-10T00:08:31;-1.70;56.20
2539;DHT22;1280;49.760;9.664;2024-01-10T00:11:00;-1.70;56.40
2539;DHT22;1280;49.760;9.664;2024-01-10T00:13:32;-1.70;56.40
2539;DHT22;1280;49.760;9.664;2024-01-10T00:16:00;-1.70;56.40
2539;DHT22;1280;49.760;9.664;2024-01-10T00:18:30;-1.70;56.50
2539;DHT22;1280;49.760;9.664;2024-01-10T00:20:58;-1.70;56.60
2539;DHT22;1280;49.760;9.664;2024-01-10T00:23:27;-1.70;56.60
2539;DHT22;1280;49.760;9.664;2024-01-10T00:25:58;-1.70;56.70
2539;DHT22;1280;49.760;9.664;2024-01-10T00:28:28;-1.70;56.70
2539;DHT22;1280;49.760;9.664;2024-01-10T00:31:01;-1.70;56.70
2539;DHT22;1280;49.760;9.664;2024-01-10T00:33:32;-1.70;56.70
2539;DHT22;1280;49.760;9.664;2024-01-10T00:36:01;-1.70;56.80
2539;DHT22;1280;49.760;9.664;2024-01-10T00:38:31;-1.70;56.80
2539;DHT22;1280;49.760;9.664;2024-01-10T00:40:59;-1.70;56.80
2539;DHT22;1280;49.760;9.664;2024-01-10T00:43:29;-1.80;56.90
2539;DHT22;1280;49.760;9.664;2024-01-10T00:45:58;-1.80;56.90
2539;DHT22;1280;49.760;9.664;2024-01-10T00:48:31;-1.80;56.90
2539;DHT22;1280;49.760;9.664;2024-01-10T00:51:01;-1.80;57.00
2539;DHT22;1280;49.760;9.664;2024-01-10T00:53:41;-1.80;57.00
2539;DHT22;1280;49.760;9.664;2024-01-10T00:56:12;-1.80;57.00
2539;DHT22;1280;49.760;9.664;2024-01-10T00:58:40;-1.80;57.00
2539;DHT22;1280;49.760;9.664;2024-01-10T01:01:13;-1.80;57.00
2539;DHT22;1280;49.760;9.664;2024-01-10T01:03:43;-1.80;56.90
2539;DHT22;1280;49.760;9.664;2024-01-10T01:06:11;-1.90;56.80
2539;DHT22;1280;49.760;9.664;2024-01-10T01:08:40;-1.90;56.80
2539;DHT22;1280;49.760;9.664;2024-01-10T01:11:11;-2.00;56.80
2539;DHT22;1280;49.760;9.664;2024-01-10T01:13:41;-2.10;56.90
2539;DHT22;1280;49.760;9.664;2024-01-10T01:16:10;-2.20;56.90
2539;DHT22;1280;49.760;9.664;2024-01-10T01:18:38;-2.20;57.10
2539;DHT22;1280;49.760;9.664;2024-01-10T01:21:09;-2.20;57.20
2539;DHT22;1280;49.760;9.664;2024-01-10T01:23:37;-2.20;57.30
2539;DHT22;1280;49.760;9.664;2024-01-10T01:26:10;-2.20;57.40
2539;DHT22;1280;49.760;9.664;2024-01-10T01:28:45;-2.10;57.50
2539;DHT22;1280;49.760;9.664;2024-01-10T01:31:15;-2.10;57.60
2539;DHT22;1280;49.760;9.664;2024-01-10T01:33:43;-2.10;57.60
2539;DHT22;1280;49.760;9.664;2024-01-10T01:36:14;-2.10;57.60
2539;DHT22;1280;49.760;9.664;2024-01-10T01:38:44;-2.10;57.60
2539;DHT22;1280;49.760;9.664;2024-01-10T01:41:12;-2.10;57.60
2539;DHT22;1280;49.760;9.664;2024-01-10T01:43:49;-2.10;57.70
2539;DHT22;1280;49.760;9.664;2024-01-10T01:46:17;-2.10;57.80
2539;DHT22;1280;49.760;9.664;2024-01-10T01:48:47;-2.10;57.80
2539;DHT22;1280;49.760;9.664;2024-01-10T01:51:20;-2.10;57.90
2539;DHT22;1280;49.760;9.664;2024-01-10T01:53:51;-2.10;57.90
2539;DHT22;1280;49.760;9.664;2024-01-10T01:56:22;-2.10;57.90
2539;DHT22;1280;49.760;9.664;2024-01-10T01:58:52;-2.10;58.00
2539;DHT22;1280;49.760;9.664;2024-01-10T02:01:26;-2.10;58.00
2539;DHT22;1280;49.760;9.664;2024-01-10T02:03:56;-2.10;58.00
2539;DHT22;1280;49.760;9.664;2024-01-10T02:06:27;-2.10;57.90
2539;DHT22;1280;49.760;9.664;2024-01-10T02:08:57;-2.20;57.80
2539;DHT22;1280;49.760;9.664;2024-01-10T02:11:27;-2.20;57.90
2539;DHT22;1280;49.760;9.664;2024-01-10T02:13:55;-2.20;57.90
2539;DHT22;1280;49.760;9.664;2024-01-10T02:16:25;-2.20;58.00
2539;DHT22;1280;49.760;9.664;2024-01-10T02:18:53;-2.20;58.10
2539;DHT22;1280;49.760;9.664;2024-01-10T02:21:23;-2.20;58.10
2539;DHT22;1280;49.760;9.664;2024-01-10T02:23:53;-2.20;58.10
2539;DHT22;1280;49.760;9.664;2024-01-10T02:26:22;-2.20;58.20
2539;DHT22;1280;49.760;9.664;2024-01-10T02:28:51;-2.20;58.30
2539;DHT22;1280;49.760;9.664;2024-01-10T02:31:22;-2.20;58.30
2539;DHT22;1280;49.760;9.664;2024-01-10T02:33:55;-2.20;58.40
2539;DHT22;1280;49.760;9.664;2024-01-10T02:36:31;-2.20;58.50
2539;DHT22;1280;49.760;9.664;2024-01-10T02:39:00;-2.20;58.60
2539;DHT22;1280;49.760;9.664;2024-01-10T02:41:32;-2.20;58.60
2539;DHT22;1280;49.760;9.664;2024-01-10T02:44:03;-2.20;58.70
2539;DHT22;1280;49.760;9.664;2024-01-10T02:46:31;-2.20;58.80
2539;DHT22;1280;49.760;9.664;2024-01-10T02:49:05;-2.20;58.80
2539;DHT22;1280;49.760;9.664;2024-01-10T02:51:35;-2.20;58.90
2539;DHT22;1280;49.760;9.664;2024-01-10T02:54:04;-2.20;59.10
2539;DHT22;1280;49.760;9.664;2024-01-10T02:56:34;-2.20;58.90
2539;DHT22;1280;49.760;9.664;2024-01-10T02:59:03;-2.20;59.10
2539;DHT22;1280;49.760;9.664;2024-01-10T03:01:31;-2.20;59.10
2539;DHT22;1280;49.760;9.664;2024-01-10T03:04:01;-2.20;58.90
2539;DHT22;1280;49.760;9.664;2024-01-10T03:06:31;-2.20;59.10
2539;DHT22;1280;49.760;9.664;2024-01-10T03:08:59;-2.30;59.10
2539;DHT22;1280;49.760;9.664;2024-01-10T03:11:27;-2.30;59.10
2539;DHT22;1280;49.760;9.664;2024-01-10T03:14:03;-2.40;59.20
2539;DHT22;1280;49.760;9.664;2024-01-10T03:16:31;-2.40;59.30
2539;DHT22;1280;49.760;9.664;2024-01-10T03:19:01;-2.40;59.30
2539;DHT22;1280;49.760;9.664;2024-01-10T03:21:29;-2.40;59.40
2539;DHT22;1280;49.760;9.664;2024-01-10T03:23:58;-2.40;59.40
2539;DHT22;1280;49.760;9.664;2024-01-10T03:26:28;-2.30;59.50
2539;DHT22;1280;49.760;9.664;2024-01-10T03:28:57;-2.30;59.50
2539;DHT22;1280;49.760;9.664;2024-01-10T03:31:29;-2.20;59.60
2539;DHT22;1280;49.760;9.664;2024-01-10T03:33:58;-2.20;59.60
2539;DHT22;1280;49.760;9.664;2024-01-10T03:36:29;-2.20;59.60
2539;DHT22;1280;49.760;9.664;2024-01-10T03:39:02;-2.10;59.70
2539;DHT22;1280;49.760;9.664;2024-01-10T03:41:32;-2.10;59.70
2539;DHT22;1280;49.760;9.664;2024-01-10T03:44:00;-2.10;59.70
2539;DHT22;1280;49.760;9.664;2024-01-10T03:46:31;-2.10;59.70
2539;DHT22;1280;49.760;9.664;2024-01-10T03:49:00;-2.00;59.70
2539;DHT22;1280;49.760;9.664;2024-01-10T03:51:30;-2.10;59.80
2539;DHT22;1280;49.760;9.664;2024-01-10T03:53:59;-2.00;59.80
2539;DHT22;1280;49.760;9.664;2024-01-10T03:56:28;-2.00;59.80
2539;DHT22;1280;49.760;9.664;2024-01-10T03:59:00;-2.00;59.80
2539;DHT22;1280;49.760;9.664;2024-01-10T04:01:31;-2.00;59.80
2539;DHT22;1280;49.760;9.664;2024-01-10T04:04:00;-2.00;59.90
2539;DHT22;1280;49.760;9.664;2024-01-10T04:06:28;-2.00;59.90
2539;DHT22;1280;49.760;9.664;2024-01-10T04:08:58;-2.00;59.90
2539;DHT22;1280;49.760;9.664;2024-01-10T04:11:27;-2.00;59.90
2539;DHT22;1280;49.760;9.664;2024-01-10T04:14:03;-2.10;59.90
2539;DHT22;1280;49.760;9.664;2024-01-10T04:16:34;-2.10;59.80
2539;DHT22;1280;49.760;9.664;2024-01-10T04:19:03;-2.20;59.70
2539;DHT22;1280;49.760;9.664;2024-01-10T04:21:31;-2.20;59.70
2539;DHT22;1280;49.760;9.664;2024-01-10T04:24:01;-2.30;59.70
2539;DHT22;1280;49.760;9.664;2024-01-10T04:26:41;-2.40;59.70
2539;DHT22;1280;49.760;9.664;2024-01-10T04:29:10;-2.40;59.90
2539;DHT22;1280;49.760;9.664;2024-01-10T04:31:41;-2.40;59.90
2539;DHT22;1280;49.760;9.664;2024-01-10T04:34:12;-2.40;59.90
2539;DHT22;1280;49.760;9.664;2024-01-10T04:36:42;-2.40;59.90
2539;DHT22;1280;49.760;9.664;2024-01-10T04:39:12;-2.50;59.90
2539;DHT22;1280;49.760;9.664;2024-01-10T04:41:43;-2.50;60.00
2539;DHT22;1280;49.760;9.664;2024-01-10T04:44:12;-2.40;60.00
2539;DHT22;1280;49.760;9.664;2024-01-10T04:46:46;-2.40;60.10
2539;DHT22;1280;49.760;9.664;2024-01-10T04:49:16;-2.40;60.10
2539;DHT22;1280;49.760;9.664;2024-01-10T04:51:50;-2.40;60.10
2539;DHT22;1280;49.760;9.664;2024-01-10T04:54:18;-2.40;60.10
2539;DHT22;1280;49.760;9.664;2024-01-10T04:56:48;-2.30;60.10
2539;DHT22;1280;49.760;9.664;2024-01-10T04:59:16;-2.30;60.10
2539;DHT22;1280;49.760;9.664;2024-01-10T05:01:47;-2.30;60.00
2539;DHT22;1280;49.760;9.664;2024-01-10T05:04:16;-2.40;60.10
2539;DHT22;1280;49.760;9.664;2024-01-10T05:06:46;-2.40;60.10
2539;DHT22;1280;49.760;9.664;2024-01-10T05:09:15;-2.30;60.20
2539;DHT22;1280;49.760;9.664;2024-01-10T05:11:44;-2.30;60.20
2539;DHT22;1280;49.760;9.664;2024-01-10T05:14:15;-2.30;60.10
2539;DHT22;1280;49.760;9.664;2024-01-10T05:16:47;-2.40;60.10
2539;DHT22;1280;49.760;9.664;2024-01-10T05:19:15;-2.40;60.10
2539;DHT22;1280;49.760;9.664;2024-01-10T05:21:45;-2.40;60.20
2539;DHT22;1280;49.760;9.664;2024-01-10T05:24:13;-2.40;60.20
2539;DHT22;1280;49.760;9.664;2024-01-10T05:26:51;-2.40;60.10
2539;DHT22;1280;49.760;9.664;2024-01-10T05:29:20;-2.40;60.20
2539;DHT22;1280;49.760;9.664;2024-01-10T05:31:53;-2.40;60.20
2539;DHT22;1280;49.760;9.664;2024-01-10T05:34:21;-2.40;60.20
2539;DHT22;1280;49.760;9.664;2024-01-10T05:36:51;-2.50;60.30
2539;DHT22;1280;49.760;9.664;2024-01-10T05:39:21;-2.50;60.30
2539;DHT22;1280;49.760;9.664;2024-01-10T05:41:51;-2.50;60.30
2539;DHT22;1280;49.760;9.664;2024-01-10T05:44:22;-2.50;60.30
2539;DHT22;1280;49.760;9.664;2024-01-10T05:46:55;-2.50;60.50
2539;DHT22;1280;49.760;9.664;2024-01-10T05:49:30;-2.50;60.50
2539;DHT22;1280;49.760;9.664;2024-01-10T05:52:08;-2.50;60.60
2539;DHT22;1280;49.760;9.664;2024-01-10T05:54:38;-2.50;60.60
2539;DHT22;1280;49.760;9.664;2024-01-10T05:57:06;-2.40;60.70
2539;DHT22;1280;49.760;9.664;2024-01-10T05:59:35;-2.40;60.70
2539;DHT22;1280;49.760;9.664;2024-01-10T06:02:06;-2.40;60.70
2539;DHT22;1280;49.760;9.664;2024-01-10T06:04:34;-2.40;60.80
2539;DHT22;1280;49.760;9.664;2024-01-10T06:07:05;-2.40;60.80
2539;DHT22;1280;49.760;9.664;2024-01-10T06:09:33;-2.40;60.80
2539;DHT22;1280;49.760;9.664;2024-01-10T06:12:03;-2.30;60.90
2539;DHT22;1280;49.760;9.664;2024-01-10T06:14:31;-2.40;60.80
2539;DHT22;1280;49.760;9.664;2024-01-10T06:17:07;-2.40;60.80
2539;DHT22;1280;49.760;9.664;2024-01-10T06:19:35;-2.40;60.90
2539;DHT22;1280;49.760;9.664;2024-01-10T06:22:05;-2.40;60.90
2539;DHT22;1280;49.760;9.664;2024-01-10T06:24:34;-2.40;60.90
2539;DHT22;1280;49.760;9.664;2024-01-10T06:27:05;-2.40;61.00
2539;DHT22;1280;49.760;9.664;2024-01-10T06:29:34;-2.40;60.90
2539;DHT22;1280;49.760;9.664;2024-01-10T06:32:08;-2.40;61.00
2539;DHT22;1280;49.760;9.664;2024-01-10T06:34:38;-2.30;61.00
2539;DHT22;1280;49.760;9.664;2024-01-10T06:37:12;-2.30;61.10
2539;DHT22;1280;49.760;9.664;2024-01-10T06:39:44;-2.30;61.10
2539;DHT22;1280;49.760;9.664;2024-01-10T06:42:12;-2.30;61.10
2539;DHT22;1280;49.760;9.664;2024-01-10T06:44:42;-2.20;61.10
2539;DHT22;1280;49.760;9.664;2024-01-10T06:47:13;-2.20;61.10
2539;DHT22;1280;49.760;9.664;2024-01-10T06:49:43;-2.20;61.10
2539;DHT22;1280;49.760;9.664;2024-01-10T06:52:11;-2.20;61.10
2539;DHT22;1280;49.760;9.664;2024-01-10T06:54:40;-2.20;61.20
2539;DHT22;1280;49.760;9.664;2024-01-10T06:57:10;-2.20;61.10
2539;DHT22;1280;49.760;9.664;2024-01-10T06:59:40;-2.20;61.10
2539;DHT22;1280;49.760;9.664;2024-01-10T07:02:09;-2.20;60.90
2539;DHT22;1280;49.760;9.664;2024-01-10T07:04:43;-2.20;60.80
2539;DHT22;1280;49.760;9.664;2024-01-10T07:07:16;-2.20;60.90
2539;DHT22;1280;49.760;9.664;2024-01-10T07:09:46;-2.20;60.80
2539;DHT22;1280;49.760;9.664;2024-01-10T07:12:14;-2.20;60.80
2539;DHT22;1280;49.760;9.664;2024-01-10T07:14:44;-2.30;60.60
2539;DHT22;1280;49.760;9.664;2024-01-10T07:17:14;-2.30;60.70
2539;DHT22;1280;49.760;9.664;2024-01-10T07:19:43;-2.30;60.70
2539;DHT22;1280;49.760;9.664;2024-01-10T07:22:13;-2.30;60.70
2539;DHT22;1280;49.760;9.664;2024-01-10T07:24:41;-2.40;60.70
2539;DHT22;1280;49.760;9.664;2024-01-10T07:27:10;-2.50;60.60
2539;DHT22;1280;49.760;9.664;2024-01-10T07:29:41;-2.60;60.60
2539;DHT22;1280;49.760;9.664;2024-01-10T07:32:09;-2.60;60.70
2539;DHT22;1280;49.760;9.664;2024-01-10T07:34:38;-2.70;60.70
2539;DHT22;1280;49.760;9.664;2024-01-10T07:37:08;-2.70;60.70
2539;DHT22;1280;49.760;9.664;2024-01-10T07:39:37;-2.70;60.70
2539;DHT22;1280;49.760;9.664;2024-01-10T07:42:06;-2.80;60.80
2539;DHT22;1280;49.760;9.664;2024-01-10T07:44:35;-2.80;60.80
2539;DHT22;1280;49.760;9.664;2024-01-10T07:47:03;-2.80;60.80
2539;DHT22;1280;49.760;9.664;2024-01-10T07:49:34;-2.80;60.90
2539;DHT22;1280;49.760;9.664;2024-01-10T07:52:03;-2.70;60.90
2539;DHT22;1280;49.760;9.664;2024-01-10T07:54:34;-2.70;60.90
2539;DHT22;1280;49.760;9.664;2024-01-10T07:57:05;-2.70;61.00
2539;DHT22;1280;49.760;9.664;2024-01-10T07:59:33;-2.70;61.00
2539;DHT22;1280;49.760;9.664;2024-01-10T08:02:01;-2.70;61.00
2539;DHT22;1280;49.760;9.664;2024-01-10T08:04:29;-2.70;61.00
2539;DHT22;1280;49.760;9.664;2024-01-10T08:06:57;-2.70;61.00
2539;DHT22;1280;49.760;9.664;2024-01-10T08:09:26;-2.60;61.00
2539;DHT22;1280;49.760;9.664;2024-01-10T08:11:55;-2.60;61.00
2539;DHT22;1280;49.760;9.664;2024-01-10T08:14:24;-2.60;61.10
2539;DHT22;1280;49.760;9.664;2024-01-10T08:16:52;-2.60;61.10
2539;DHT22;1280;49.760;9.664;2024-01-10T08:19:21;-2.60;61.10
2539;DHT22;1280;49.760;9.664;2024-01-10T08:21:49;-2.60;61.10
2539;DHT22;1280;49.760;9.664;2024-01-10T08:24:18;-2.50;61.10
2539;DHT22;1280;49.760;9.664;2024-01-10T08:26:46;-2.60;61.20
2539;DHT22;1280;49.760;9.664;2024-01-10T08:29:17;-2.60;61.20
2539;DHT22;1280;49.760;9.664;2024-01-10T08:31:45;-2.50;61.30
2539;DHT22;1280;49.760;9.664;2024-01-10T08:34:14;-2.50;61.40
2539;DHT22;1280;49.760;9.664;2024-01-10T08:36:42;-2.40;61.40
2539;DHT22;1280;49.760;9.664;2024-01-10T08:39:09;-2.40;61.40
2539;DHT22;1280;49.760;9.664;2024-01-10T08:41:38;-2.40;61.30
2539;DHT22;1280;49.760;9.664;2024-01-10T08:44:11;-2.30;61.40
2539;DHT22;1280;49.760;9.664;2024-01-10T08:46:40;-2.30;61.40
2539;DHT22;1280;49.760;9.664;2024-01-10T08:49:08;-2.30;61.50
2539;DHT22;1280;49.760;9.664;2024-01-10T08:51:36;-2.20;61.50
2539;DHT22;1280;49.760;9.664;2024-01-10T08:54:04;-2.20;61.60
2539;DHT22;1280;49.760;9.664;2024-01-10T08:56:32;-2.10;61.50
2539;DHT22;1280;49.760;9.664;2024-01-10T08:59:01;-2.10;61.60
2539;DHT22;1280;49.760;9.664;2024-01-10T09:01:32;-2.10;61.60
2539;DHT22;1280;49.760;9.664;2024-01-10T09:04:02;-2.10;61.60
2539;DHT22;1280;49.760;9.664;2024-01-10T09:06:32;-2.00;61.70
2539;DHT22;1280;49.760;9.664;2024-01-10T09:09:00;-2.00;61.70
2539;DHT22;1280;49.760;9.664;2024-01-10T09:11:28;-1.90;61.70
2539;DHT22;1280;49.760;9.664;2024-01-10T09:13:56;-1.90;61.60
2539;DHT22;1280;49.760;9.664;2024-01-10T09:16:27;-1.80;61.50
2539;DHT22;1280;49.760;9.664;2024-01-10T09:18:56;-1.80;61.40
2539;DHT22;1280;49.760;9.664;2024-01-10T09:21:26;-1.80;61.40
2539;DHT22;1280;49.760;9.664;2024-01-10T09:23:54;-1.70;61.40
2539;DHT22;1280;49.760;9.664;2024-01-10T09:26:22;-1.70;61.30
2539;DHT22;1280;49.760;9.664;2024-01-10T09:28:51;-1.60;61.30
2539;DHT22;1280;49.760;9.664;2024-01-10T09:31:19;-1.60;61.30
2539;DHT22;1280;49.760;9.664;2024-01-10T09:33:47;-1.60;61.30
2539;DHT22;1280;49.760;9.664;2024-01-10T09:36:15;-1.50;61.30
2539;DHT22;1280;49.760;9.664;2024-01-10T09:38:44;-1.50;61.30
2539;DHT22;1280;49.760;9.664;2024-01-10T09:41:14;-1.50;61.20
2539;DHT22;1280;49.760;9.664;2024-01-10T09:43:44;-1.50;61.20
2539;DHT22;1280;49.760;9.664;2024-01-10T09:46:13;-1.40;61.20
2539;DHT22;1280;49.760;9.664;2024-01-10T09:48:43;-1.40;61.20
2539;DHT22;1280;49.760;9.664;2024-01-10T09:51:12;-1.30;61.20
2539;DHT22;1280;49.760;9.664;2024-01-10T09:53:44;-1.30;61.20
2539;DHT22;1280;49.760;9.664;2024-01-10T09:56:17;-1.30;61.20
2539;DHT22;1280;49.760;9.664;2024-01-10T09:58:46;-1.30;61.00
2539;DHT22;1280;49.760;9.664;2024-01-10T10:01:16;-1.20;61.00
2539;DHT22;1280;49.760;9.664;2024-01-10T10:03:45;-1.20;61.00
2539;DHT22;1280;49.760;9.664;2024-01-10T10:06:14;-1.20;61.10
2539;DHT22;1280;49.760;9.664;2024-01-10T10:08:42;-1.20;61.10
2539;DHT22;1280;49.760;9.664;2024-01-10T10:11:13;-1.10;61.10
2539;DHT22;1280;49.760;9.664;2024-01-10T10:13:43;-1.10;61.10
2539;DHT22;1280;49.760;9.664;2024-01-10T10:16:12;-1.10;61.10
2539;DHT22;1280;49.760;9.664;2024-01-10T10:18:40;-1.10;61.00
2539;DHT22;1280;49.760;9.664;2024-01-10T10:21:10;-1.00;61.00
2539;DHT22;1280;49.760;9.664;2024-01-10T10:23:41;-1.00;61.00
2539;DHT22;1280;49.760;9.664;2024-01-10T10:26:11;-1.00;61.00
2539;DHT22;1280;49.760;9.664;2024-01-10T10:28:42;-1.00;61.00
2539;DHT22;1280;49.760;9.664;2024-01-10T10:31:10;-0.90;60.90
2539;DHT22;1280;49.760;9.664;2024-01-10T10:33:39;-1.00;60.90
2539;DHT22;1280;49.760;9.664;2024-01-10T10:36:07;-0.90;60.90
2539;DHT22;1280;49.760;9.664;2024-01-10T10:38:36;-0.90;61.00
2539;DHT22;1280;49.760;9.664;2024-01-10T10:41:05;-0.80;61.00
2539;DHT22;1280;49.760;9.664;2024-01-10T10:43:38;-0.70;61.00
2539;DHT22;1280;49.760;9.664;2024-01-10T10:46:09;-0.60;61.00
2539;DHT22;1280;49.760;9.664;2024-01-10T10:48:39;-0.60;60.90
2539;DHT22;1280;49.760;9.664;2024-01-10T10:51:09;-0.50;60.80
2539;DHT22;1280;49.760;9.664;2024-01-10T10:53:38;-0.50;60.80
2539;DHT22;1280;49.760;9.664;2024-01-10T10:56:07;-0.40;60.80
2539;DHT22;1280;49.760;9.664;2024-01-10T10:58:38;-0.40;60.80
2539;DHT22;1280;49.760;9.664;2024-01-10T11:01:12;-0.40;60.70
2539;DHT22;1280;49.760;9.664;2024-01-10T11:03:40;-0.30;60.80
2539;DHT22;1280;49.760;9.664;2024-01-10T11:06:11;-0.30;60.70
2539;DHT22;1280;49.760;9.664;2024-01-10T11:08:43;-0.30;60.70
2539;DHT22;1280;49.760;9.664;2024-01-10T11:11:19;-0.30;60.80
2539;DHT22;1280;49.760;9.664;2024-01-10T11:14:07;-0.30;60.80
2539;DHT22;1280;49.760;9.664;2024-01-10T11:16:55;-0.20;60.80
2539;DHT22;1280;49.760;9.664;2024-01-10T11:19:51;-0.20;60.80
2539;DHT22;1280;49.760;9.664;2024-01-10T11:22:36;-0.20;60.70
2539;DHT22;1280;49.760;9.664;2024-01-10T11:25:07;-0.20;60.80
2539;DHT22;1280;49.760;9.664;2024-01-10T11:27:37;-0.20;60.80
2539;DHT22;1280;49.760;9.664;2024-01-10T11:30:06;-0.20;60.80
2539;DHT22;1280;49.760;9.664;2024-01-10T11:32:37;-0.20;60.80
2539;DHT22;1280;49.760;9.664;2024-01-10T11:35:10;-0.20;60.90
2539;DHT22;1280;49.760;9.664;2024-01-10T11:37:43;-0.20;60.90
2539;DHT22;1280;49.760;9.664;2024-01-10T11:40:12;-0.20;61.00
2539;DHT22;1280;49.760;9.664;2024-01-10T11:42:44;-0.10;61.00
2539;DHT22;1280;49.760;9.664;2024-01-10T11:45:36;-0.10;61.00
2539;DHT22;1280;49.760;9.664;2024-01-10T11:48:08;-0.10;61.00
2539;DHT22;1280;49.760;9.664;2024-01-10T11:50:40;-0.10;61.00
2539;DHT22;1280;49.760;9.664;2024-01-10T11:53:16;-0.10;61.10
2539;DHT22;1280;49.760;9.664;2024-01-10T11:56:09;-0.10;61.20
2539;DHT22;1280;49.760;9.664;2024-01-10T11:58:55;-0.10;61.20
2539;DHT22;1280;49.760;9.664;2024-01-10T12:01:25;0.00;61.30
2539;DHT22;1280;49.760;9.664;2024-01-10T12:03:59;0.00;61.30
2539;DHT22;1280;49.760;9.664;2024-01-10T12:06:45;0.10;61.30
2539;DHT22;1280;49.760;9.664;2024-01-10T12:09:15;0.10;61.30
2539;DHT22;1280;49.760;9.664;2024-01-10T12:11:44;0.10;61.20
2539;DHT22;1280;49.760;9.664;2024-01-10T12:14:13;0.10;61.20
2539;DHT22;1280;49.760;9.664;2024-01-10T12:16:41;0.10;61.20
2539;DHT22;1280;49.760;9.664;2024-01-10T12:19:11;0.20;61.20
2539;DHT22;1280;49.760;9.664;2024-01-10T12:21:39;0.20;61.20
2539;DHT22;1280;49.760;9.664;2024-01-10T12:24:07;0.20;61.30
2539;DHT22;1280;49.760;9.664;2024-01-10T12:26:43;0.20;61.30
2539;DHT22;1280;49.760;9.664;2024-01-10T12:29:11;0.20;61.30
2539;DHT22;1280;49.760;9.664;2024-01-10T12:31:39;0.20;61.30
2539;DHT22;1280;49.760;9.664;2024-01-10T12:34:08;0.20;61.30
2539;DHT22;1280;49.760;9.664;2024-01-10T12:36:39;0.20;61.30
2539;DHT22;1280;49.760;9.664;2024-01-10T12:39:09;0.20;61.40
2539;DHT22;1280;49.760;9.664;2024-01-10T12:41:37;0.20;61.40
2539;DHT22;1280;49.760;9.664;2024-01-10T12:44:07;0.30;61.30
2539;DHT22;1280;49.760;9.664;2024-01-10T12:46:35;0.30;61.30
2539;DHT22;1280;49.760;9.664;2024-01-10T12:49:06;0.30;61.40
2539;DHT22;1280;49.760;9.664;2024-01-10T12:51:35;0.30;61.40
2539;DHT22;1280;49.760;9.664;2024-01-10T12:54:05;0.40;61.30
2539;DHT22;1280;49.760;9.664;2024-01-10T12:56:34;0.40;61.30
2539;DHT22;1280;49.760;9.664;2024-01-10T12:59:02;0.40;61.30
2539;DHT22;1280;49.760;9.664;2024-01-10T13:01:31;0.40;61.30
2539;DHT22;1280;49.760;9.664;2024-01-10T13:04:00;0.40;61.30
2539;DHT22;1280;49.760;9.664;2024-01-10T13:06:31;0.40;61.30
2539;DHT22;1280;49.760;9.664;2024-01-10T13:08:59;0.40;61.30
2539;DHT22;1280;49.760;9.664;2024-01-10T13:11:28;0.40;61.40
2539;DHT22;1280;49.760;9.664;2024-01-10T13:13:57;0.50;61.40
2539;DHT22;1280;49.760;9.664;2024-01-10T13:16:25;0.50;61.40
2539;DHT22;1280;49.760;9.664;2024-01-10T13:18:53;0.50;61.40
2539;DHT22;1280;49.760;9.664;2024-01-10T13:21:23;0.60;61.40
2539;DHT22;1280;49.760;9.664;2024-01-10T13:23:53;0.60;61.40
2539;DHT22;1280;49.760;9.664;2024-01-10T13:26:21;0.60;61.50
2539;DHT22;1280;49.760;9.664;2024-01-10T13:28:51;0.60;61.50
2539;DHT22;1280;49.760;9.664;2024-01-10T13:31:19;0.60;61.40
2539;DHT22;1280;49.760;9.664;2024-01-10T13:33:47;0.70;61.40
2539;DHT22;1280;49.760;9.664;2024-01-10T13:36:15;0.70;61.40
2539;DHT22;1280;49.760;9.664;2024-01-10T13:38:43;0.70;61.40
2539;DHT22;1280;49.760;9.664;2024-01-10T13:41:18;0.70;61.40
2539;DHT22;1280;49.760;9.664;2024-01-10T13:43:46;0.70;61.40
2539;DHT22;1280;49.760;9.664;2024-01-10T13:46:16;0.70;61.40
2539;DHT22;1280;49.760;9.664;2024-01-10T13:48:44;0.80;61.40
2539;DHT22;1280;49.760;9.664;2024-01-10T13:51:13;0.80;61.40
2539;DHT22;1280;49.760;9.664;2024-01-10T13:53:41;0.80;61.30
2539;DHT22;1280;49.760;9.664;2024-01-10T13:56:09;0.80;61.30
2539;DHT22;1280;49.760;9.664;2024-01-10T13:58:39;0.80;61.30
2539;DHT22;1280;49.760;9.664;2024-01-10T14:01:07;0.80;61.40
2539;DHT22;1280;49.760;9.664;2024-01-10T14:03:36;0.80;61.40
2539;DHT22;1280;49.760;9.664;2024-01-10T14:06:05;0.90;61.40
2539;DHT22;1280;49.760;9.664;2024-01-10T14:08:33;0.80;61.30
2539;DHT22;1280;49.760;9.664;2024-01-10T14:11:04;0.80;61.40
2539;DHT22;1280;49.760;9.664;2024-01-10T14:13:33;0.80;61.40
2539;DHT22;1280;49.760;9.664;2024-01-10T14:16:02;0.80;61.50
2539;DHT22;1280;49.760;9.664;2024-01-10T14:18:30;0.80;61.50
2539;DHT22;1280;49.760;9.664;2024-01-10T14:20:59;0.80;61.50
2539;DHT22;1280;49.760;9.664;2024-01-10T14:23:28;0.80;61.50
2539;DHT22;1280;49.760;9.664;2024-01-10T14:25:56;0.80;61.50
2539;DHT22;1280;49.760;9.664;2024-01-10T14:28:24;0.80;61.50
2539;DHT22;1280;49.760;9.664;2024-01-10T14:30:52;0.90;61.50
2539;DHT22;1280;49.760;9.664;2024-01-10T14:33:35;0.90;61.60
2539;DHT22;1280;49.760;9.664;2024-01-10T14:36:06;0.90;61.50
2539;DHT22;1280;49.760;9.664;2024-01-10T14:38:34;0.90;61.50
2539;DHT22;1280;49.760;9.664;2024-01-10T14:41:02;0.90;61.50
2539;DHT22;1280;49.760;9.664;2024-01-10T14:43:30;0.90;61.60
2539;DHT22;1280;49.760;9.664;2024-01-10T14:45:58;0.90;61.60
2539;DHT22;1280;49.760;9.664;2024-01-10T14:48:26;0.80;61.60
2539;DHT22;1280;49.760;9.664;2024-01-10T14:50:54;0.80;61.60
2539;DHT22;1280;49.760;9.664;2024-01-10T14:53:24;0.80;61.60
2539;DHT22;1280;49.760;9.664;2024-01-10T14:55:53;0.80;61.60
2539;DHT22;1280;49.760;9.664;2024-01-10T14:58:23;0.80;61.60
2539;DHT22;1280;49.760;9.664;2024-01-10T15:00:51;0.80;61.60
2539;DHT22;1280;49.760;9.664;2024-01-10T15:03:19;0.80;61.60
2539;DHT22;1280;49.760;9.664;2024-01-10T15:05:53;0.80;61.70
2539;DHT22;1280;49.760;9.664;2024-01-10T15:08:22;0.80;61.70
2539;DHT22;1280;49.760;9.664;2024-01-10T15:10:51;0.80;61.70
2539;DHT22;1280;49.760;9.664;2024-01-10T15:13:19;0.80;61.70
2539;DHT22;1280;49.760;9.664;2024-01-10T15:15:47;0.80;61.70
2539;DHT22;1280;49.760;9.664;2024-01-10T15:18:15;0.70;61.70
2539;DHT22;1280;49.760;9.664;2024-01-10T15:20:44;0.80;61.70
2539;DHT22;1280;49.760;9.664;2024-01-10T15:23:12;0.80;61.70
2539;DHT22;1280;49.760;9.664;2024-01-10T15:25:40;0.70;61.70
2539;DHT22;1280;49.760;9.664;2024-01-10T15:28:11;0.70;61.80
2539;DHT22;1280;49.760;9.664;2024-01-10T15:30:38;0.70;61.80
2539;DHT22;1280;49.760;9.664;2024-01-10T15:33:14;0.70;61.80
2539;DHT22;1280;49.760;9.664;2024-01-10T15:35:42;0.70;61.80
2539;DHT22;1280;49.760;9.664;2024-01-10T15:38:10;0.70;61.80
2539;DHT22;1280;49.760;9.664;2024-01-10T15:40:39;0.70;61.80
2539;DHT22;1280;49.760;9.664;2024-01-10T15:43:08;0.70;61.90
2539;DHT22;1280;49.760;9.664;2024-01-10T15:45:40;0.70;61.90
2539;DHT22;1280;49.760;9.664;2024-01-10T15:48:08;0.80;61.90
2539;DHT22;1280;49.760;9.664;2024-01-10T15:50:36;0.80;61.90
2539;DHT22;1280;49.760;9.664;2024-01-10T15:53:04;0.80;62.00
2539;DHT22;1280;49.760;9.664;2024-01-10T15:55:33;0.80;62.00
2539;DHT22;1280;49.760;9.664;2024-01-10T15:58:04;0.80;62.00
2539;DHT22;1280;49.760;9.664;2024-01-10T16:00:34;0.80;62.00
2539;DHT22;1280;49.760;9.664;2024-01-10T16:03:04;0.80;62.00
2539;DHT22;1280;49.760;9.664;2024-01-10T16:05:33;0.70;62.00
2539;DHT22;1280;49.760;9.664;2024-01-10T16:08:02;0.70;62.00
2539;DHT22;1280;49.760;9.664;2024-01-10T16:10:30;0.70;62.00
2539;DHT22;1280;49.760;9.664;2024-01-10T16:12:58;0.60;62.10
2539;DHT22;1280;49.760;9.664;2024-01-10T16:15:28;0.60;62.10
2539;DHT22;1280;49.760;9.664;2024-01-10T16:17:56;0.60;62.30
2539;DHT22;1280;49.760;9.664;2024-01-10T16:20:25;0.50;62.30
2539;DHT22;1280;49.760;9.664;2024-01-10T16:22:54;0.50;62.30
2539;DHT22;1280;49.760;9.664;2024-01-10T16:25:22;0.40;62.40